Time;durP1;ratioP1;P1;durP2;ratioP2;P2;SDS_P1;SDS_P2;PMS_P1;PMS_P2;Temp;Humidity;BMP_temperature;BMP_pressure;BME280_temperature;BME280_humidity;BME280_pressure;Samples;Min_cycle;Max_cycle;Signal;HPM_P1;HPM_P2
2021/12/22 00:01:43;;;;;;;13.23;9.87;;;;;;;-0.51;53.64;101557.25;10343927;28;20280;-82
2021/12/22 00:06:45;;;;;;;13.97;9.83;;;;;;;-0.44;52.87;101564.47;10326824;28;20202;-82
2021/12/22 00:11:49;;;;;;;14.07;10.27;;;;;;;-0.52;53.48;101570.22;10320252;28;20201;-81
2021/12/22 00:16:51;;;;;;;15.87;10.60;;;;;;;-0.43;53.24;101563.41;10339771;28;20264;-81
2021/12/22 00:21:53;;;;;;;15.00;10.43;;;;;;;-0.71;52.75;101562.88;10347154;28;20311;-81
2021/12/22 00:26:56;;;;;;;15.00;10.00;;;;;;;-0.60;53.39;101562.19;10329320;28;20198;-80
2021/12/22 00:32:10;;;;;;;15.07;9.67;;;;;;;-0.42;52.46;101573.34;10345963;28;20201;-80
2021/12/22 00:37:14;;;;;;;14.33;9.77;;;;;;;-0.73;53.71;101573.28;10327242;28;20288;-80
2021/12/22 00:42:18;;;;;;;12.53;9.43;;;;;;;-0.64;53.92;101571.97;10294214;28;20203;-82
2021/12/22 00:47:24;;;;;;;12.17;9.37;;;;;;;-0.53;52.55;101568.53;10304571;28;20546;-82
2021/12/22 00:52:26;;;;;;;13.20;9.77;;;;;;;-0.47;52.13;101559.38;10325476;28;20248;-81
2021/12/22 00:57:31;;;;;;;17.53;9.40;;;;;;;-0.62;51.83;101564.31;10345112;28;20315;-80
2021/12/22 01:02:33;;;;;;;12.43;8.43;;;;;;;-0.61;52.03;101564.09;10366297;28;20222;-81
2021/12/22 01:07:36;;;;;;;12.83;9.23;;;;;;;-0.81;52.39;101570.75;10330088;28;20279;-82
2021/12/22 01:12:53;;;;;;;12.17;8.80;;;;;;;-0.87;52.41;101577.13;10347172;28;20200;-82
2021/12/22 01:18:08;;;;;;;12.97;9.30;;;;;;;-0.82;53.59;101566.31;10336827;28;20556;-81
2021/12/22 01:23:13;;;;;;;12.50;9.03;;;;;;;-0.77;52.89;101570.09;10323618;28;20265;-82
2021/12/22 01:28:16;;;;;;;13.83;8.63;;;;;;;-0.64;52.07;101569.19;10334693;28;20218;-82
2021/12/22 01:33:19;;;;;;;12.57;9.07;;;;;;;-0.79;52.24;101557.56;10301314;28;20210;-82
2021/12/22 01:38:21;;;;;;;14.50;9.60;;;;;;;-0.81;52.07;101573.53;10294588;28;20288;-82
2021/12/22 01:43:23;;;;;;;15.93;9.73;;;;;;;-0.85;52.74;101580.53;10293018;28;20203;-82
2021/12/22 01:54:27;;;;;;;16.10;10.07;;;;;;;-0.87;53.47;101575.22;10320755;28;20237;-82
2021/12/22 01:59:29;;;;;;;15.03;10.37;;;;;;;-0.86;52.33;101581.59;10292896;28;20258;-83
2021/12/22 02:04:37;;;;;;;12.87;8.77;;;;;;;-1.07;53.42;101580.75;10285557;28;20234;-83
2021/12/22 02:14:43;;;;;;;12.90;8.77;;;;;;;-1.29;52.45;101595.00;10330892;28;20237;-83
2021/12/22 02:19:46;;;;;;;15.60;9.07;;;;;;;-1.09;52.55;101587.56;10315073;28;20233;-82
2021/12/22 02:24:54;;;;;;;12.77;8.70;;;;;;;-1.10;52.22;101589.47;10332841;28;20285;-83
2021/12/22 02:30:00;;;;;;;15.13;8.83;;;;;;;-0.98;52.73;101590.53;10330349;28;20276;-83
2021/12/22 02:35:05;;;;;;;13.83;8.57;;;;;;;-0.94;53.08;101579.06;10331540;28;20222;-81
2021/12/22 02:40:13;;;;;;;11.73;8.67;;;;;;;-1.05;52.75;101567.59;10315355;28;20276;-84
2021/12/22 02:45:18;;;;;;;13.33;8.93;;;;;;;-1.26;52.39;101565.09;10315550;28;20237;-84
2021/12/22 02:50:20;;;;;;;12.10;7.53;;;;;;;-1.40;52.90;101571.69;10298506;28;20206;-84
2021/12/22 02:55:29;;;;;;;16.50;9.63;;;;;;;-1.54;52.26;101568.06;10328261;28;21498;-82
2021/12/22 03:00:48;;;;;;;13.63;8.70;;;;;;;-1.23;52.10;101559.16;10326987;28;20313;-86
2021/12/22 03:05:51;;;;;;;15.53;9.23;;;;;;;-1.37;52.78;101557.47;10339484;28;20210;-83
2021/12/22 03:10:55;;;;;;;11.50;7.90;;;;;;;-1.42;52.87;101562.78;10315045;28;20210;-82
2021/12/22 03:15:58;;;;;;;10.97;8.47;;;;;;;-1.37;52.18;101560.25;10313616;28;20195;-83
2021/12/22 03:21:15;;;;;;;14.40;7.70;;;;;;;-1.48;53.41;101569.16;10297022;28;20285;-83
2021/12/22 03:26:18;;;;;;;11.13;8.07;;;;;;;-1.32;53.13;101568.69;10363764;28;20210;-83
2021/12/22 03:31:21;;;;;;;10.40;8.37;;;;;;;-1.11;52.37;101562.97;10328260;28;20257;-83
2021/12/22 03:36:23;;;;;;;10.97;8.30;;;;;;;-1.56;53.33;101566.59;10284258;28;20257;-84
2021/12/22 03:41:26;;;;;;;13.30;8.80;;;;;;;-1.73;53.95;101560.66;10336160;28;20272;-84
2021/12/22 03:46:28;;;;;;;10.27;7.70;;;;;;;-1.45;52.57;101565.94;10320529;28;20547;-84
2021/12/22 03:51:32;;;;;;;12.87;7.90;;;;;;;-1.26;51.98;101564.25;10306601;28;20215;-84
2021/12/22 03:56:35;;;;;;;10.03;7.53;;;;;;;-1.65;53.08;101554.09;10312055;28;20274;-84
2021/12/22 04:01:37;;;;;;;10.37;7.53;;;;;;;-1.68;52.91;101558.09;10294972;28;20211;-83
2021/12/22 04:06:41;;;;;;;10.10;7.47;;;;;;;-1.86;52.15;101552.38;10327385;28;20465;-85
2021/12/22 04:11:44;;;;;;;9.80;7.40;;;;;;;-1.53;52.46;101553.25;10329383;28;20194;-83
2021/12/22 04:16:46;;;;;;;10.73;8.03;;;;;;;-1.68;52.69;101561.72;10332563;28;20251;-84
2021/12/22 04:21:50;;;;;;;8.77;6.67;;;;;;;-1.46;51.98;101561.53;10321879;28;20287;-84
2021/12/22 04:26:52;;;;;;;9.30;7.47;;;;;;;-1.44;52.46;101560.22;10313576;28;20226;-84
2021/12/22 04:31:54;;;;;;;8.70;7.00;;;;;;;-1.52;51.19;101573.38;10298624;28;20214;-86
2021/12/22 04:36:57;;;;;;;9.57;6.33;;;;;;;-1.64;52.59;101566.81;10320260;28;20261;-84
2021/12/22 04:42:00;;;;;;;9.77;6.93;;;;;;;-1.46;52.18;101564.28;10336440;28;20210;-84
2021/12/22 04:47:02;;;;;;;9.73;6.60;;;;;;;-1.60;51.75;101568.09;10335359;28;20607;-83
2021/12/22 04:52:07;;;;;;;9.90;7.00;;;;;;;-1.49;52.54;101570.22;10321301;28;20205;-84
2021/12/22 04:57:10;;;;;;;10.87;7.17;;;;;;;-1.83;52.26;101568.47;10336226;28;20256;-83
2021/12/22 05:02:12;;;;;;;9.07;7.10;;;;;;;-1.77;51.68;101578.66;10332269;28;20272;-86
2021/12/22 05:07:15;;;;;;;9.23;7.23;;;;;;;-1.84;52.59;101567.63;10329580;28;20202;-83
2021/12/22 05:12:17;;;;;;;8.87;6.90;;;;;;;-1.74;52.86;101573.59;10278735;28;20202;-85
2021/12/22 05:22:48;;;;;;;8.27;6.67;;;;;;;-1.63;52.14;101576.78;10294245;28;20253;-84
2021/12/22 05:27:51;;;;;;;9.83;6.23;;;;;;;-1.76;52.67;101564.69;10310479;28;20237;-86
2021/12/22 05:32:55;;;;;;;8.37;6.53;;;;;;;-1.94;51.41;101566.34;10317248;28;20202;-86
2021/12/22 05:38:04;;;;;;;7.77;6.13;;;;;;;-1.86;51.93;101564.25;10333799;28;20238;-86
2021/12/22 05:43:08;;;;;;;8.20;5.63;;;;;;;-1.95;52.32;101557.22;10335261;28;20194;-83
2021/12/22 05:48:10;;;;;;;8.40;6.40;;;;;;;-2.04;51.94;101544.72;10329518;28;20523;-84
2021/12/22 05:53:12;;;;;;;8.90;6.00;;;;;;;-1.92;51.69;101537.53;10338717;28;20238;-86
2021/12/22 05:58:15;;;;;;;7.80;6.67;;;;;;;-2.14;52.36;101539.63;10342959;28;20218;-83
2021/12/22 06:03:19;;;;;;;7.13;5.53;;;;;;;-2.11;52.24;101527.34;10334657;28;20256;-87
2021/12/22 06:08:27;;;;;;;7.40;6.17;;;;;;;-1.82;51.01;101529.69;10374548;28;20197;-88
2021/12/22 06:13:29;;;;;;;9.13;5.60;;;;;;;-1.97;51.53;101540.06;10367487;28;20210;-87
2021/12/22 06:18:38;;;;;;;8.63;5.40;;;;;;;-1.77;51.84;101535.44;10344483;28;20279;-85
2021/12/22 06:23:41;;;;;;;7.73;5.37;;;;;;;-2.21;51.89;101526.88;10354809;28;20288;-86
2021/12/22 06:28:43;;;;;;;7.83;6.30;;;;;;;-2.38;52.78;101542.09;10307037;28;20210;-82
2021/12/22 06:33:45;;;;;;;6.70;5.30;;;;;;;-2.08;51.71;101529.66;10318002;28;20206;-86
2021/12/22 06:38:48;;;;;;;10.10;5.57;;;;;;;-1.96;51.84;101530.75;10356427;28;20249;-88
2021/12/22 06:43:50;;;;;;;8.60;5.07;;;;;;;-2.23;52.20;101529.00;10325861;28;20480;-87
2021/12/22 06:48:52;;;;;;;7.27;5.73;;;;;;;-2.05;52.29;101527.34;10330313;28;20202;-86
2021/12/22 06:53:55;;;;;;;7.20;5.63;;;;;;;-2.03;51.85;101518.88;10301108;28;20277;-86
2021/12/22 06:58:59;;;;;;;9.37;5.47;;;;;;;-2.00;51.78;101518.47;10345030;28;20591;-86
2021/12/22 07:04:03;;;;;;;9.03;6.57;;;;;;;-1.94;51.84;101517.63;10337252;28;20655;-82
2021/12/22 07:09:07;;;;;;;8.33;6.13;;;;;;;-2.24;51.68;101510.81;10322706;28;20202;-85
2021/12/22 07:14:09;;;;;;;10.33;5.70;;;;;;;-2.38;52.09;101503.59;10304482;28;20214;-84
2021/12/22 07:19:12;;;;;;;9.57;6.73;;;;;;;-2.25;52.66;101504.47;10318754;28;20249;-87
2021/12/22 07:24:14;;;;;;;7.77;5.53;;;;;;;-2.22;52.23;101498.50;10321044;28;20238;-87
2021/12/22 07:29:16;;;;;;;8.47;6.03;;;;;;;-2.33;52.82;101495.53;10290859;28;20233;-85
2021/12/22 07:34:21;;;;;;;8.13;6.17;;;;;;;-2.04;52.76;101495.16;10340578;28;20248;-86
2021/12/22 07:39:24;;;;;;;7.17;5.63;;;;;;;-2.12;52.44;101492.63;10347870;28;20701;-86
2021/12/22 07:44:26;;;;;;;8.30;6.20;;;;;;;-2.11;52.82;101494.31;10317988;28;20488;-86
2021/12/22 07:49:28;;;;;;;9.23;6.67;;;;;;;-2.37;53.04;101488.78;10328988;28;20493;-86
2021/12/22 07:54:31;;;;;;;9.93;7.70;;;;;;;-2.28;52.77;101504.03;10315957;28;20491;-85
2021/12/22 07:59:34;;;;;;;8.60;6.70;;;;;;;-2.34;53.79;101513.09;10330034;28;20225;-85
2021/12/22 08:04:36;;;;;;;15.67;7.03;;;;;;;-1.94;52.53;101512.13;10326104;28;20238;-85
2021/12/22 08:09:39;;;;;;;9.93;6.83;;;;;;;-1.84;52.71;101520.78;10309433;28;20498;-85
2021/12/22 08:14:41;;;;;;;8.03;6.20;;;;;;;-1.52;52.04;101515.50;10306625;28;20233;-85
2021/12/22 08:19:45;;;;;;;9.17;6.53;;;;;;;-1.49;51.67;101515.09;10312158;28;20225;-84
2021/12/22 08:24:47;;;;;;;13.40;6.80;;;;;;;-1.57;52.52;101512.53;10307121;28;20248;-86
2021/12/22 08:29:50;;;;;;;12.17;6.33;;;;;;;-1.50;52.50;101508.72;10296768;28;20599;-85
2021/12/22 08:34:55;;;;;;;8.87;6.53;;;;;;;-1.42;52.53;101510.41;10301135;28;20264;-86
2021/12/22 08:39:58;;;;;;;9.30;6.87;;;;;;;-1.65;53.72;101512.75;10333961;28;20226;-87
2021/12/22 08:45:00;;;;;;;11.57;7.70;;;;;;;-1.22;52.53;101508.47;10340794;28;20210;-83
2021/12/22 08:50:05;;;;;;;13.37;7.20;;;;;;;-1.30;53.48;101497.66;10319339;28;20210;-84
2021/12/22 08:55:08;;;;;;;11.90;7.10;;;;;;;-0.86;53.49;101504.34;10310332;28;20276;-83
2021/12/22 09:00:11;;;;;;;12.47;8.93;;;;;;;-1.00;53.09;101498.88;10320640;28;20250;-85
2021/12/22 09:05:14;;;;;;;14.53;9.03;;;;;;;-0.91;53.59;101496.72;10343467;28;20288;-86
2021/12/22 09:10:16;;;;;;;12.13;8.77;;;;;;;-0.64;52.98;101492.78;10357307;28;20301;-85
2021/12/22 09:15:19;;;;;;;14.13;8.17;;;;;;;-0.51;52.85;101486.34;10340956;28;20690;-84
2021/12/22 09:20:21;;;;;;;15.27;8.33;;;;;;;-0.64;52.27;101486.41;10327734;28;20230;-85
2021/12/22 09:25:24;;;;;;;10.07;8.03;;;;;;;-0.33;52.16;101477.34;10321842;28;20230;-85
2021/12/22 09:30:35;;;;;;;14.63;8.40;;;;;;;-0.50;53.56;101482.53;10326498;28;20221;-85
2021/12/22 09:35:38;;;;;;;13.87;9.40;;;;;;;-0.52;53.59;101473.59;10329151;28;20229;-83
2021/12/22 09:40:41;;;;;;;15.30;9.20;;;;;;;-0.40;53.05;101482.03;10308265;28;20229;-85
2021/12/22 09:45:48;;;;;;;17.13;9.37;;;;;;;-0.45;53.99;101488.22;10322978;28;20321;-83
2021/12/22 09:52:16;;;;;;;15.07;9.57;;;;;;;-0.17;53.05;101487.00;10330304;28;20213;-83
2021/12/22 09:56:20;;;;;;;17.77;9.97;;;;;;;-0.52;54.29;101487.41;10335243;28;20198;-82
2021/12/22 10:01:23;;;;;;;18.97;10.90;;;;;;;-0.27;53.87;101474.50;10323871;28;20638;-83
2021/12/22 10:06:26;;;;;;;16.43;11.10;;;;;;;-0.17;54.41;101478.72;10346337;28;20206;-84
2021/12/22 10:11:31;;;;;;;14.67;10.07;;;;;;;0.01;54.49;101474.13;10325705;28;20203;-83
2021/12/22 10:16:45;;;;;;;16.83;10.27;;;;;;;-0.19;54.85;101475.34;10335903;28;20862;-84
2021/12/22 10:21:59;;;;;;;20.13;10.97;;;;;;;0.39;54.19;101475.94;10330602;28;20289;-84
2021/12/22 10:27:07;;;;;;;11.43;8.60;;;;;;;0.28;54.71;101469.25;10329057;28;20197;-83
2021/12/22 10:32:14;;;;;;;14.23;9.47;;;;;;;0.81;53.31;101468.72;10319251;28;20194;-82
2021/12/22 10:37:33;;;;;;;15.40;8.87;;;;;;;0.85;53.88;101460.81;10304264;28;20229;-83
2021/12/22 10:42:40;;;;;;;14.63;10.00;;;;;;;1.29;53.01;101445.78;10307198;28;20222;-83
2021/12/22 10:53:14;;;;;;;12.93;8.83;;;;;;;1.51;53.57;101435.91;10323397;28;20252;-83
2021/12/22 10:58:25;;;;;;;18.00;8.63;;;;;;;1.57;53.70;101434.94;10315541;28;20214;-83
2021/12/22 11:04:02;;;;;;;16.20;9.30;;;;;;;1.85;53.24;101424.09;10305044;28;20249;-82
2021/12/22 11:09:14;;;;;;;13.53;8.67;;;;;;;1.70;54.19;101411.75;10346449;28;20215;-83
2021/12/22 11:14:22;;;;;;;15.27;9.20;;;;;;;1.99;53.01;101410.00;10337600;28;20599;-83
2021/12/22 11:19:28;;;;;;;10.07;8.33;;;;;;;2.05;52.94;101404.34;10334348;28;20256;-83
2021/12/22 11:24:34;;;;;;;10.60;8.93;;;;;;;2.07;52.83;101402.19;10307603;28;20253;-84
2021/12/22 11:29:39;;;;;;;12.03;9.13;;;;;;;2.69;52.02;101396.19;10330152;28;20261;-84
2021/12/22 11:34:47;;;;;;;18.27;8.93;;;;;;;2.62;51.70;101392.69;10336361;28;20209;-84
2021/12/22 11:39:49;;;;;;;16.73;10.77;;;;;;;2.09;54.57;101393.63;10336603;28;20210;-84
2021/12/22 11:44:53;;;;;;;13.73;9.60;;;;;;;2.52;53.39;101384.97;10328145;28;20214;-83
2021/12/22 11:49:58;;;;;;;12.27;9.23;;;;;;;2.27;53.51;101378.81;10329217;28;20236;-86
2021/12/22 11:55:08;;;;;;;16.30;9.50;;;;;;;2.88;52.51;101369.94;10335881;28;20205;-83
2021/12/22 12:00:24;;;;;;;12.73;8.60;;;;;;;3.23;51.60;101356.78;10314314;28;20222;-84
2021/12/22 12:05:29;;;;;;;12.20;8.97;;;;;;;3.39;51.21;101348.72;10295338;28;20631;-84
2021/12/22 12:10:39;;;;;;;14.23;8.90;;;;;;;3.15;51.80;101345.22;10324040;28;20202;-84
2021/12/22 12:21:38;;;;;;;11.10;9.03;;;;;;;3.23;52.07;101339.28;10294552;28;20500;-83
2021/12/22 12:21:51;;;;;;;12.83;8.70;;;;;;;2.95;52.41;101348.47;10317697;28;20226;-84
2021/12/22 12:26:54;;;;;;;18.63;8.93;;;;;;;2.96;53.57;101341.78;10310516;28;20276;-83
2021/12/22 12:31:56;;;;;;;14.30;9.03;;;;;;;3.32;51.72;101338.63;10332050;28;20209;-83
2021/12/22 12:36:59;;;;;;;13.93;8.63;;;;;;;3.22;52.54;101332.03;10331720;28;20257;-83
2021/12/22 12:42:02;;;;;;;14.57;9.27;;;;;;;3.06;53.28;101321.75;10336399;28;20296;-83
2021/12/22 12:47:18;;;;;;;11.97;7.90;;;;;;;3.50;52.08;101323.66;10324915;28;20230;-80
2021/12/22 12:52:24;;;;;;;12.53;8.27;;;;;;;3.74;51.85;101318.78;10330725;28;20530;-84
2021/12/22 12:57:28;;;;;;;12.13;7.67;;;;;;;3.78;51.26;101308.88;10316433;28;20599;-84
2021/12/22 13:02:32;;;;;;;11.43;7.60;;;;;;;3.79;51.33;101305.00;10346829;28;20290;-83
2021/12/22 13:07:34;;;;;;;11.13;7.57;;;;;;;3.87;51.00;101299.00;10314682;28;20206;-84
2021/12/22 13:17:54;;;;;;;10.20;7.80;;;;;;;3.83;51.20;101286.72;10338791;28;20237;-82
2021/12/22 13:23:00;;;;;;;10.57;7.93;;;;;;;3.51;52.83;101280.06;10314342;28;20279;-85
2021/12/22 13:28:06;;;;;;;12.47;7.53;;;;;;;3.86;51.18;101283.44;10312639;28;20252;-82
2021/12/22 13:33:15;;;;;;;13.20;7.93;;;;;;;3.94;50.84;101271.88;10325006;28;20225;-82
2021/12/22 13:38:27;;;;;;;9.50;8.00;;;;;;;3.96;51.35;101260.50;10324369;28;20252;-81
2021/12/22 13:43:43;;;;;;;12.13;8.00;;;;;;;4.13;50.42;101261.28;10319053;28;20539;-82
2021/12/22 13:48:55;;;;;;;13.63;8.10;;;;;;;4.01;51.29;101252.22;10330991;28;20201;-82
2021/12/22 13:53:57;;;;;;;13.30;9.07;;;;;;;4.19;50.57;101246.41;10308840;28;20469;-82
2021/12/22 13:59:08;;;;;;;10.87;7.77;;;;;;;4.10;49.77;101239.59;10362933;28;20201;-82
2021/12/22 14:04:16;;;;;;;11.10;7.07;;;;;;;4.34;48.98;101226.31;10311918;28;20222;-83
2021/12/22 14:09:27;;;;;;;9.50;6.43;;;;;;;4.26;49.07;101232.28;10327101;28;20237;-83
2021/12/22 14:14:47;;;;;;;9.27;6.33;;;;;;;4.24;48.80;101217.81;10323887;28;20198;-82
2021/12/22 14:19:49;;;;;;;10.27;7.10;;;;;;;4.34;47.63;101212.38;10311837;28;20222;-82
2021/12/22 14:24:57;;;;;;;9.63;6.33;;;;;;;4.25;48.03;101211.16;10335167;28;20550;-82
2021/12/22 14:30:01;;;;;;;8.27;6.07;;;;;;;4.26;47.12;101215.59;10344568;28;20542;-82
2021/12/22 14:35:12;;;;;;;13.67;6.50;;;;;;;4.23;47.48;101214.22;10336500;28;20194;-84
2021/12/22 14:40:15;;;;;;;9.27;5.87;;;;;;;3.84;48.43;101213.34;10315569;28;20218;-82
2021/12/22 14:45:22;;;;;;;8.20;5.47;;;;;;;3.68;48.51;101201.16;10315930;28;20260;-84
2021/12/22 14:50:25;;;;;;;6.97;5.47;;;;;;;3.76;48.36;101199.03;10301317;28;20268;-84
2021/12/22 14:55:39;;;;;;;8.03;5.47;;;;;;;3.48;49.04;101191.66;10320490;28;20599;-83
2021/12/22 15:00:45;;;;;;;7.93;5.40;;;;;;;3.52;48.33;101187.28;10329272;28;20229;-82
2021/12/22 15:05:52;;;;;;;6.93;4.93;;;;;;;3.43;48.12;101183.25;10325557;28;20194;-82
2021/12/22 15:10:56;;;;;;;7.57;5.23;;;;;;;2.98;49.78;101181.41;10331631;28;20512;-84
2021/12/22 15:15:58;;;;;;;8.60;5.90;;;;;;;2.72;50.54;101176.47;10306284;28;20203;-83
2021/12/22 15:21:01;;;;;;;10.17;5.53;;;;;;;2.76;50.40;101158.25;10336343;28;20226;-84
2021/12/22 15:26:04;;;;;;;9.03;5.80;;;;;;;2.53;52.10;101146.19;10318633;28;20202;-83
2021/12/22 15:31:06;;;;;;;10.33;7.13;;;;;;;2.53;52.39;101139.81;10298668;28;20507;-83
2021/12/22 15:36:09;;;;;;;9.17;7.50;;;;;;;2.30;53.82;101129.66;10299222;28;20688;-81
2021/12/22 15:41:11;;;;;;;16.10;10.00;;;;;;;2.48;53.46;101137.78;10347988;28;20631;-82
2021/12/22 15:46:13;;;;;;;15.27;9.47;;;;;;;2.37;53.86;101141.44;10314860;28;20256;-84
2021/12/22 15:51:16;;;;;;;12.77;10.10;;;;;;;2.12;54.51;101129.81;10333711;28;20197;-81
2021/12/22 15:56:18;;;;;;;15.67;10.43;;;;;;;1.92;53.94;101126.66;10330707;28;20248;-81
2021/12/22 16:01:20;;;;;;;15.63;10.33;;;;;;;2.21;53.98;101120.00;10331270;28;20476;-82
2021/12/22 16:06:23;;;;;;;13.83;10.60;;;;;;;2.19;53.53;101116.66;10324895;28;20229;-81
2021/12/22 16:11:25;;;;;;;13.73;8.77;;;;;;;2.20;53.09;101118.34;10315387;28;20252;-80
2021/12/22 16:16:27;;;;;;;15.43;10.57;;;;;;;1.93;53.40;101111.69;10324508;28;20634;-81
2021/12/22 16:21:30;;;;;;;25.63;15.57;;;;;;;1.73;53.25;101101.03;10307515;28;20265;-80
2021/12/22 16:26:35;;;;;;;19.33;12.47;;;;;;;1.81;52.44;101112.56;10293094;28;20234;-80
2021/12/22 16:31:37;;;;;;;14.57;10.13;;;;;;;1.41;53.81;101109.75;10331308;28;20939;-80
2021/12/22 16:36:40;;;;;;;14.90;8.70;;;;;;;1.84;52.50;101112.06;10310421;28;20252;-80
2021/12/22 16:41:42;;;;;;;14.40;8.90;;;;;;;1.88;51.96;101110.50;10313333;28;20764;-81
2021/12/22 16:46:44;;;;;;;10.47;7.00;;;;;;;2.19;50.96;101119.41;10313893;28;20667;-82
2021/12/22 16:51:47;;;;;;;8.70;6.70;;;;;;;1.62;52.17;101121.28;10337368;28;20573;-82
2021/12/22 16:56:49;;;;;;;8.73;6.33;;;;;;;1.89;50.98;101117.72;10318931;28;20238;-81
2021/12/22 17:01:51;;;;;;;8.77;6.57;;;;;;;1.83;51.53;101112.31;10312135;28;20246;-81
2021/12/22 17:06:55;;;;;;;9.37;6.60;;;;;;;1.96;51.11;101116.75;10291647;28;20616;-80
2021/12/22 17:11:57;;;;;;;10.77;7.03;;;;;;;1.56;52.37;101106.47;10313924;28;20302;-80
2021/12/22 17:17:12;;;;;;;9.47;7.13;;;;;;;1.68;52.37;101098.97;10314887;28;20677;-80
2021/12/22 17:22:14;;;;;;;11.07;8.27;;;;;;;1.68;52.54;101087.91;10327668;28;20252;-81
2021/12/22 17:27:16;;;;;;;12.83;8.63;;;;;;;1.54;52.84;101086.47;10339061;28;20238;-80
2021/12/22 17:32:20;;;;;;;14.20;8.87;;;;;;;1.77;52.77;101083.69;10284747;28;20289;-80
2021/12/22 17:37:22;;;;;;;14.60;9.70;;;;;;;1.47;53.16;101075.56;10331085;28;20234;-81
2021/12/22 17:42:25;;;;;;;16.60;11.07;;;;;;;1.37;53.97;101066.19;10301426;28;20319;-79
2021/12/22 17:47:27;;;;;;;17.00;11.37;;;;;;;1.53;53.93;101055.19;10311878;28;20659;-80
2021/12/22 17:52:30;;;;;;;14.80;11.27;;;;;;;1.53;53.75;101062.66;10335524;28;20348;-82
2021/12/22 17:57:33;;;;;;;15.17;10.43;;;;;;;1.65;53.38;101060.72;10322360;28;20234;-82
2021/12/22 18:02:35;;;;;;;15.70;10.40;;;;;;;1.49;53.67;101053.16;10327232;28;20650;-81
2021/12/22 18:07:37;;;;;;;16.87;10.33;;;;;;;1.76;52.70;101051.53;10313760;28;20296;-81
2021/12/22 18:12:40;;;;;;;11.07;8.30;;;;;;;1.50;52.18;101035.47;10327384;28;20567;-80
2021/12/22 18:17:43;;;;;;;10.33;7.57;;;;;;;1.85;50.27;101033.41;10328482;28;20250;-81
2021/12/22 18:22:45;;;;;;;11.57;7.43;;;;;;;1.82;49.50;101025.59;10311048;28;20265;-80
2021/12/22 18:27:48;;;;;;;10.97;6.93;;;;;;;1.82;49.64;101024.75;10329827;28;20418;-82
2021/12/22 18:32:52;;;;;;;7.87;6.40;;;;;;;2.07;48.01;101013.31;10299564;28;20273;-80
2021/12/22 18:43:04;;;;;;;8.67;6.00;;;;;;;1.87;47.13;101005.47;10324287;28;20249;-83
2021/12/22 18:48:07;;;;;;;7.20;6.30;;;;;;;1.63;47.42;101001.13;10329838;28;20563;-84
2021/12/22 18:53:09;;;;;;;9.17;6.60;;;;;;;1.63;49.39;101001.97;10327317;28;20206;-86
2021/12/22 18:58:12;;;;;;;13.47;7.63;;;;;;;1.63;48.85;101014.97;10327026;28;20233;-84
2021/12/22 19:03:15;;;;;;;9.50;7.20;;;;;;;1.43;49.54;100998.75;10325350;28;20257;-87
2021/12/22 19:08:18;;;;;;;10.90;7.30;;;;;;;1.51;49.70;100998.38;10307532;28;20205;-83
2021/12/22 19:13:20;;;;;;;12.57;7.27;;;;;;;1.43;49.51;100990.44;10343165;28;20202;-83
2021/12/22 19:18:22;;;;;;;11.73;8.77;;;;;;;1.46;50.18;100978.88;10293030;28;20229;-81
2021/12/22 19:23:25;;;;;;;11.40;7.43;;;;;;;1.63;50.21;100963.19;10330267;28;20618;-82
2021/12/22 19:28:27;;;;;;;11.03;7.70;;;;;;;1.15;49.83;100961.63;10309563;28;20234;-83
2021/12/22 19:33:34;;;;;;;13.70;7.43;;;;;;;1.97;48.41;100957.69;10330811;28;20587;-83
2021/12/22 19:38:36;;;;;;;11.00;6.93;;;;;;;1.58;48.17;100960.31;10307399;28;20237;-85
2021/12/22 19:43:42;;;;;;;8.33;5.67;;;;;;;1.67;47.63;100961.56;10294623;28;20320;-84
2021/12/22 19:48:44;;;;;;;9.17;6.40;;;;;;;1.50;47.67;100950.47;10322044;28;20234;-84
2021/12/22 19:53:49;;;;;;;8.13;5.57;;;;;;;1.53;46.83;100951.88;10322677;28;20230;-81
2021/12/22 19:58:51;;;;;;;8.93;6.50;;;;;;;1.39;47.58;100956.06;10332783;28;20622;-81
2021/12/22 20:03:53;;;;;;;10.80;6.70;;;;;;;1.60;47.98;100933.22;10330317;28;20276;-82
2021/12/22 20:08:56;;;;;;;8.80;6.30;;;;;;;1.58;48.09;100924.31;10283015;28;20263;-83
2021/12/22 20:13:58;;;;;;;9.53;6.40;;;;;;;1.89;47.25;100926.56;10336024;28;20733;-83
2021/12/22 20:19:01;;;;;;;8.43;5.97;;;;;;;1.57;47.39;100917.09;10284612;28;20337;-82
2021/12/22 20:24:04;;;;;;;7.37;5.10;;;;;;;1.74;46.26;100901.34;10285663;28;20593;-82
2021/12/22 20:29:06;;;;;;;8.73;6.20;;;;;;;1.76;47.70;100890.84;10302831;28;20285;-83
2021/12/22 20:34:09;;;;;;;8.53;5.30;;;;;;;1.64;48.36;100887.31;10272892;28;20595;-83
2021/12/22 20:39:12;;;;;;;8.23;6.07;;;;;;;1.57;45.35;100891.31;10290830;28;20281;-85
2021/12/22 20:44:14;;;;;;;8.30;6.07;;;;;;;2.00;45.15;100874.06;10292401;28;20579;-81
2021/12/22 20:49:16;;;;;;;9.07;4.97;;;;;;;1.72;45.29;100856.44;10274067;28;20737;-84
2021/12/22 20:54:19;;;;;;;10.10;5.87;;;;;;;2.29;44.13;100841.56;10307067;28;20238;-85
2021/12/22 20:59:21;;;;;;;11.40;6.20;;;;;;;2.00;44.89;100838.91;10306369;28;20230;-84
2021/12/22 21:04:24;;;;;;;10.30;5.63;;;;;;;1.67;46.67;100834.19;10327999;28;20284;-82
2021/12/22 21:09:26;;;;;;;7.47;5.83;;;;;;;2.08;45.22;100837.63;10356217;28;20303;-85
2021/12/22 21:14:29;;;;;;;10.17;5.93;;;;;;;1.97;45.15;100819.16;10334657;28;20272;-84
2021/12/22 21:19:31;;;;;;;6.73;5.03;;;;;;;1.88;44.57;100816.81;10325321;28;20276;-83
2021/12/22 21:24:33;;;;;;;9.20;6.27;;;;;;;2.23;42.84;100810.13;10342899;28;20253;-82
2021/12/22 21:29:35;;;;;;;6.50;4.93;;;;;;;2.45;42.35;100812.97;10315565;28;20202;-85
2021/12/22 21:34:38;;;;;;;8.93;5.77;;;;;;;2.51;42.18;100812.78;10328686;28;20205;-82
2021/12/22 21:39:40;;;;;;;7.43;5.20;;;;;;;2.63;41.21;100800.72;10331908;28;20243;-83
2021/12/22 21:44:42;;;;;;;6.23;4.90;;;;;;;2.27;43.66;100799.38;10316133;28;20292;-83
2021/12/22 21:49:44;;;;;;;11.30;6.67;;;;;;;2.00;44.73;100794.56;10325449;28;20665;-82
2021/12/22 21:54:47;;;;;;;7.03;5.23;;;;;;;2.06;45.09;100773.28;10316217;28;20209;-83
2021/12/22 21:59:49;;;;;;;6.80;4.93;;;;;;;2.19;43.87;100757.13;10326821;28;20210;-85
2021/12/22 22:04:51;;;;;;;6.70;5.20;;;;;;;2.10;45.09;100763.38;10323352;28;20296;-83
2021/12/22 22:09:56;;;;;;;6.97;5.30;;;;;;;1.97;43.40;100761.81;10317384;28;20206;-85
2021/12/22 22:14:58;;;;;;;8.57;5.57;;;;;;;2.23;43.17;100757.47;10282837;28;20211;-84
2021/12/22 22:20:03;;;;;;;7.70;5.63;;;;;;;2.20;43.75;100750.50;10349907;28;20252;-83
2021/12/22 22:25:05;;;;;;;9.93;6.10;;;;;;;2.06;44.42;100749.19;10335321;28;20226;-83
2021/12/22 22:30:08;;;;;;;6.87;6.07;;;;;;;2.36;43.40;100746.03;10288631;28;20210;-84
2021/12/22 22:35:11;;;;;;;9.13;5.97;;;;;;;2.46;42.68;100743.38;10330256;28;20597;-84
2021/12/22 22:40:15;;;;;;;6.77;5.60;;;;;;;2.31;43.19;100731.25;10315994;28;20586;-85
2021/12/22 22:45:19;;;;;;;6.73;4.50;;;;;;;2.64;42.95;100730.28;10332036;28;20283;-83
2021/12/22 22:50:21;;;;;;;7.07;5.37;;;;;;;2.38;42.78;100723.59;10323409;28;20206;-83
2021/12/22 22:55:23;;;;;;;7.80;5.67;;;;;;;2.62;41.74;100715.84;10314707;28;20248;-83
2021/12/22 23:00:30;;;;;;;7.70;5.30;;;;;;;2.79;42.12;100699.94;10354887;28;20333;-82
2021/12/22 23:05:33;;;;;;;7.30;5.27;;;;;;;2.84;41.28;100702.75;10314536;28;20229;-82
2021/12/22 23:10:36;;;;;;;6.90;5.17;;;;;;;2.70;41.21;100695.97;10322566;28;20275;-81
2021/12/22 23:15:38;;;;;;;6.53;5.23;;;;;;;2.42;42.90;100702.59;10326439;28;20206;-84
2021/12/22 23:20:40;;;;;;;8.90;4.80;;;;;;;2.29;42.89;100701.00;10304486;28;20304;-82
2021/12/22 23:25:42;;;;;;;7.60;5.10;;;;;;;2.43;43.85;100702.31;10336763;28;20234;-82
2021/12/22 23:30:45;;;;;;;9.43;6.63;;;;;;;1.67;45.05;100717.00;10328073;28;20496;-84
2021/12/22 23:35:48;;;;;;;12.93;8.70;;;;;;;1.58;47.47;100704.69;10311108;28;20197;-83
2021/12/22 23:41:01;;;;;;;14.07;8.10;;;;;;;1.77;48.34;100689.50;10328419;28;20259;-83
2021/12/22 23:51:44;;;;;;;12.70;9.87;;;;;;;1.88;48.98;100669.16;10298766;28;20269;-84
2021/12/22 23:56:47;;;;;;;13.47;9.90;;;;;;;1.49;49.71;100690.44;10315078;28;20233;-82
